sensor_id;sensor_type;location;lat;lon;timestamp;pressure;altitude;pressure_sealevel;temperature;humidity
39954;BME280;25631;51.516;-0.470;2023-07-30T00:00:38;100681.63;;;16.71;33.33
39954;BME280;25631;51.516;-0.470;2023-07-30T00:03:15;100685.36;;;16.61;33.45
39954;BME280;25631;51.516;-0.470;2023-07-30T00:05:53;100681.09;;;16.49;33.55
39954;BME280;25631;51.516;-0.470;2023-07-30T00:08:29;100680.73;;;16.71;33.38
39954;BME280;25631;51.516;-0.470;2023-07-30T00:11:06;100679.74;;;16.92;33.31
39954;BME280;25631;51.516;-0.470;2023-07-30T00:13:43;100674.02;;;16.55;33.51
39954;BME280;25631;51.516;-0.470;2023-07-30T00:16:19;100675.84;;;16.73;33.41
39954;BME280;25631;51.516;-0.470;2023-07-30T00:18:55;100675.96;;;16.75;33.54
39954;BME280;25631;51.516;-0.470;2023-07-30T00:21:32;100679.32;;;16.63;33.48
39954;BME280;25631;51.516;-0.470;2023-07-30T00:24:09;100675.79;;;16.64;33.67
39954;BME280;25631;51.516;-0.470;2023-07-30T00:26:45;100675.57;;;16.60;33.68
39954;BME280;25631;51.516;-0.470;2023-07-30T00:29:22;100674.15;;;16.78;33.53
39954;BME280;25631;51.516;-0.470;2023-07-30T00:31:58;100676.51;;;16.59;33.82
39954;BME280;25631;51.516;-0.470;2023-07-30T00:34:35;100677.53;;;16.64;33.68
39954;BME280;25631;51.516;-0.470;2023-07-30T00:37:11;100677.74;;;16.61;33.75
39954;BME280;25631;51.516;-0.470;2023-07-30T00:39:47;100677.62;;;16.75;33.91
39954;BME280;25631;51.516;-0.470;2023-07-30T00:42:24;100667.18;;;16.63;34.00
39954;BME280;25631;51.516;-0.470;2023-07-30T00:45:00;100666.40;;;16.43;34.11
39954;BME280;25631;51.516;-0.470;2023-07-30T00:47:37;100667.23;;;17.02;34.05
39954;BME280;25631;51.516;-0.470;2023-07-30T00:50:15;100660.73;;;16.50;34.49
39954;BME280;25631;51.516;-0.470;2023-07-30T00:52:53;100662.06;;;16.43;34.59
39954;BME280;25631;51.516;-0.470;2023-07-30T00:55:29;100665.28;;;16.24;34.64
39954;BME280;25631;51.516;-0.470;2023-07-30T00:58:06;100665.66;;;16.34;34.47
39954;BME280;25631;51.516;-0.470;2023-07-30T01:00:43;100669.45;;;16.18;34.88
39954;BME280;25631;51.516;-0.470;2023-07-30T01:03:20;100668.54;;;16.36;34.86
39954;BME280;25631;51.516;-0.470;2023-07-30T01:05:58;100668.90;;;16.35;34.87
39954;BME280;25631;51.516;-0.470;2023-07-30T01:08:35;100670.08;;;16.51;34.86
39954;BME280;25631;51.516;-0.470;2023-07-30T01:11:11;100677.24;;;16.44;35.01
39954;BME280;25631;51.516;-0.470;2023-07-30T01:13:48;100672.16;;;16.27;35.33
39954;BME280;25631;51.516;-0.470;2023-07-30T01:16:25;100670.42;;;16.20;35.23
39954;BME280;25631;51.516;-0.470;2023-07-30T01:19:02;100674.62;;;16.26;35.41
39954;BME280;25631;51.516;-0.470;2023-07-30T01:21:38;100684.59;;;16.27;35.58
39954;BME280;25631;51.516;-0.470;2023-07-30T01:24:15;100683.13;;;16.42;35.49
39954;BME280;25631;51.516;-0.470;2023-07-30T01:26:55;100677.70;;;16.38;35.44
39954;BME280;25631;51.516;-0.470;2023-07-30T01:29:40;100682.42;;;16.73;35.25
39954;BME280;25631;51.516;-0.470;2023-07-30T01:32:20;100688.35;;;16.33;35.26
39954;BME280;25631;51.516;-0.470;2023-07-30T01:35:01;100689.28;;;16.82;35.26
39954;BME280;25631;51.516;-0.470;2023-07-30T01:37:39;100687.00;;;16.34;35.65
39954;BME280;25631;51.516;-0.470;2023-07-30T01:40:17;100684.15;;;16.25;35.77
39954;BME280;25631;51.516;-0.470;2023-07-30T01:42:54;100683.29;;;15.90;35.91
39954;BME280;25631;51.516;-0.470;2023-07-30T01:45:30;100681.45;;;16.04;35.87
39954;BME280;25631;51.516;-0.470;2023-07-30T01:48:07;100683.71;;;16.23;35.94
39954;BME280;25631;51.516;-0.470;2023-07-30T01:50:44;100685.18;;;16.01;35.88
39954;BME280;25631;51.516;-0.470;2023-07-30T01:53:21;100683.76;;;16.21;35.80
39954;BME280;25631;51.516;-0.470;2023-07-30T01:55:57;100682.28;;;15.80;35.90
39954;BME280;25631;51.516;-0.470;2023-07-30T01:58:33;100679.24;;;16.20;35.74
39954;BME280;25631;51.516;-0.470;2023-07-30T02:01:10;100687.97;;;16.24;35.65
39954;BME280;25631;51.516;-0.470;2023-07-30T02:03:46;100683.29;;;16.17;35.77
39954;BME280;25631;51.516;-0.470;2023-07-30T02:06:23;100682.06;;;16.35;35.88
39954;BME280;25631;51.516;-0.470;2023-07-30T02:08:59;100686.68;;;16.32;35.64
39954;BME280;25631;51.516;-0.470;2023-07-30T02:11:36;100688.99;;;15.95;35.90
39954;BME280;25631;51.516;-0.470;2023-07-30T02:14:12;100684.52;;;16.42;35.72
39954;BME280;25631;51.516;-0.470;2023-07-30T02:16:48;100682.95;;;16.05;36.00
39954;BME280;25631;51.516;-0.470;2023-07-30T02:19:25;100680.16;;;16.19;35.99
39954;BME280;25631;51.516;-0.470;2023-07-30T02:22:01;100679.44;;;16.26;36.01
39954;BME280;25631;51.516;-0.470;2023-07-30T02:24:38;100688.39;;;15.91;36.14
39954;BME280;25631;51.516;-0.470;2023-07-30T02:27:14;100688.37;;;15.88;36.21
39954;BME280;25631;51.516;-0.470;2023-07-30T02:29:51;100680.22;;;15.70;36.35
39954;BME280;25631;51.516;-0.470;2023-07-30T02:32:28;100680.28;;;15.87;36.45
39954;BME280;25631;51.516;-0.470;2023-07-30T02:35:05;100690.55;;;15.38;36.88
39954;BME280;25631;51.516;-0.470;2023-07-30T02:37:41;100681.58;;;15.80;36.80
39954;BME280;25631;51.516;-0.470;2023-07-30T02:40:18;100682.78;;;15.47;37.32
39954;BME280;25631;51.516;-0.470;2023-07-30T02:42:54;100676.31;;;15.38;37.44
39954;BME280;25631;51.516;-0.470;2023-07-30T02:45:31;100680.10;;;15.32;37.21
39954;BME280;25631;51.516;-0.470;2023-07-30T02:48:07;100683.11;;;15.30;36.65
39954;BME280;25631;51.516;-0.470;2023-07-30T02:50:44;100682.97;;;15.53;36.50
39954;BME280;25631;51.516;-0.470;2023-07-30T02:53:21;100677.46;;;15.50;36.34
39954;BME280;25631;51.516;-0.470;2023-07-30T02:55:57;100679.46;;;15.70;36.32
39954;BME280;25631;51.516;-0.470;2023-07-30T02:58:34;100688.37;;;15.48;36.48
39954;BME280;25631;51.516;-0.470;2023-07-30T03:01:10;100690.05;;;15.78;36.44
39954;BME280;25631;51.516;-0.470;2023-07-30T03:03:46;100688.28;;;15.65;36.57
39954;BME280;25631;51.516;-0.470;2023-07-30T03:06:23;100690.83;;;15.51;36.68
39954;BME280;25631;51.516;-0.470;2023-07-30T03:09:00;100688.72;;;15.92;36.78
39954;BME280;25631;51.516;-0.470;2023-07-30T03:11:36;100688.10;;;15.71;36.85
39954;BME280;25631;51.516;-0.470;2023-07-30T03:14:13;100688.37;;;15.36;37.75
39954;BME280;25631;51.516;-0.470;2023-07-30T03:16:49;100682.23;;;15.46;37.75
39954;BME280;25631;51.516;-0.470;2023-07-30T03:19:26;100683.96;;;14.84;38.45
39954;BME280;25631;51.516;-0.470;2023-07-30T03:22:03;100676.33;;;15.11;38.49
39954;BME280;25631;51.516;-0.470;2023-07-30T03:24:39;100678.13;;;15.06;38.78
39954;BME280;25631;51.516;-0.470;2023-07-30T03:27:16;100682.45;;;15.20;38.48
39954;BME280;25631;51.516;-0.470;2023-07-30T03:29:52;100690.71;;;15.28;38.54
39954;BME280;25631;51.516;-0.470;2023-07-30T03:32:28;100686.65;;;15.21;38.48
39954;BME280;25631;51.516;-0.470;2023-07-30T03:35:05;100688.63;;;14.86;38.51
39954;BME280;25631;51.516;-0.470;2023-07-30T03:37:42;100693.75;;;14.67;38.76
39954;BME280;25631;51.516;-0.470;2023-07-30T03:40:18;100692.62;;;15.11;39.06
39954;BME280;25631;51.516;-0.470;2023-07-30T03:42:55;100694.37;;;14.74;38.82
39954;BME280;25631;51.516;-0.470;2023-07-30T03:45:31;100691.56;;;14.86;39.01
39954;BME280;25631;51.516;-0.470;2023-07-30T03:48:07;100695.88;;;14.81;39.20
39954;BME280;25631;51.516;-0.470;2023-07-30T03:50:44;100700.55;;;14.90;39.14
39954;BME280;25631;51.516;-0.470;2023-07-30T03:53:20;100701.89;;;14.83;39.47
39954;BME280;25631;51.516;-0.470;2023-07-30T03:55:57;100709.50;;;14.76;39.48
39954;BME280;25631;51.516;-0.470;2023-07-30T03:58:33;100708.25;;;14.80;39.54
39954;BME280;25631;51.516;-0.470;2023-07-30T04:01:10;100711.50;;;14.72;39.52
39954;BME280;25631;51.516;-0.470;2023-07-30T04:03:46;100710.09;;;14.35;39.93
39954;BME280;25631;51.516;-0.470;2023-07-30T04:06:22;100706.66;;;14.21;40.02
39954;BME280;25631;51.516;-0.470;2023-07-30T04:08:59;100706.50;;;14.29;40.06
39954;BME280;25631;51.516;-0.470;2023-07-30T04:11:35;100709.99;;;14.50;40.12
39954;BME280;25631;51.516;-0.470;2023-07-30T04:14:11;100708.52;;;14.49;40.12
39954;BME280;25631;51.516;-0.470;2023-07-30T04:16:48;100705.52;;;14.18;40.32
39954;BME280;25631;51.516;-0.470;2023-07-30T04:19:24;100707.55;;;14.28;40.45
39954;BME280;25631;51.516;-0.470;2023-07-30T04:22:01;100706.78;;;14.20;40.50
39954;BME280;25631;51.516;-0.470;2023-07-30T04:24:37;100707.22;;;14.30;40.39
39954;BME280;25631;51.516;-0.470;2023-07-30T04:27:14;100706.25;;;14.12;40.43
39954;BME280;25631;51.516;-0.470;2023-07-30T04:29:50;100711.61;;;14.55;40.32
39954;BME280;25631;51.516;-0.470;2023-07-30T04:32:27;100715.54;;;14.25;40.58
39954;BME280;25631;51.516;-0.470;2023-07-30T04:35:04;100714.23;;;14.14;40.70
39954;BME280;25631;51.516;-0.470;2023-07-30T04:37:40;100721.04;;;14.42;40.46
39954;BME280;25631;51.516;-0.470;2023-07-30T04:40:18;100719.46;;;13.96;40.91
39954;BME280;25631;51.516;-0.470;2023-07-30T04:42:54;100725.92;;;14.08;40.79
39954;BME280;25631;51.516;-0.470;2023-07-30T04:45:30;100732.02;;;14.05;40.86
39954;BME280;25631;51.516;-0.470;2023-07-30T04:48:07;100738.14;;;14.05;40.88
39954;BME280;25631;51.516;-0.470;2023-07-30T04:50:44;100741.40;;;14.17;40.83
39954;BME280;25631;51.516;-0.470;2023-07-30T04:53:20;100741.62;;;14.24;40.56
39954;BME280;25631;51.516;-0.470;2023-07-30T04:55:57;100740.53;;;14.45;40.50
39954;BME280;25631;51.516;-0.470;2023-07-30T04:58:34;100737.43;;;14.25;40.46
39954;BME280;25631;51.516;-0.470;2023-07-30T05:01:10;100745.24;;;14.47;40.38
39954;BME280;25631;51.516;-0.470;2023-07-30T05:03:47;100741.94;;;14.44;40.62
39954;BME280;25631;51.516;-0.470;2023-07-30T05:06:23;100742.15;;;14.16;40.47
39954;BME280;25631;51.516;-0.470;2023-07-30T05:09:00;100739.27;;;14.56;40.52
39954;BME280;25631;51.516;-0.470;2023-07-30T05:11:36;100748.32;;;14.77;40.32
39954;BME280;25631;51.516;-0.470;2023-07-30T05:14:12;100751.42;;;14.34;40.48
39954;BME280;25631;51.516;-0.470;2023-07-30T05:16:49;100750.68;;;14.56;40.56
39954;BME280;25631;51.516;-0.470;2023-07-30T05:19:25;100755.54;;;14.95;40.24
39954;BME280;25631;51.516;-0.470;2023-07-30T05:22:02;100758.07;;;14.34;40.43
39954;BME280;25631;51.516;-0.470;2023-07-30T05:24:38;100754.55;;;14.62;40.20
39954;BME280;25631;51.516;-0.470;2023-07-30T05:27:15;100772.74;;;14.80;39.86
39954;BME280;25631;51.516;-0.470;2023-07-30T05:29:51;100763.98;;;15.05;39.68
39954;BME280;25631;51.516;-0.470;2023-07-30T05:32:27;100762.75;;;15.08;39.58
39954;BME280;25631;51.516;-0.470;2023-07-30T05:35:05;100765.66;;;15.07;39.55
39954;BME280;25631;51.516;-0.470;2023-07-30T05:37:41;100766.57;;;14.48;39.64
39954;BME280;25631;51.516;-0.470;2023-07-30T05:40:18;100767.48;;;14.39;39.74
39954;BME280;25631;51.516;-0.470;2023-07-30T05:42:54;100774.04;;;14.36;39.89
39954;BME280;25631;51.516;-0.470;2023-07-30T05:45:31;100774.51;;;15.01;39.65
39954;BME280;25631;51.516;-0.470;2023-07-30T05:48:07;100780.64;;;14.75;39.41
39954;BME280;25631;51.516;-0.470;2023-07-30T05:50:43;100782.79;;;14.77;39.60
39954;BME280;25631;51.516;-0.470;2023-07-30T05:53:20;100780.43;;;14.78;39.48
39954;BME280;25631;51.516;-0.470;2023-07-30T05:55:56;100780.71;;;14.98;39.53
39954;BME280;25631;51.516;-0.470;2023-07-30T05:58:33;100778.43;;;14.49;39.73
39954;BME280;25631;51.516;-0.470;2023-07-30T06:01:09;100773.94;;;14.71;39.78
39954;BME280;25631;51.516;-0.470;2023-07-30T06:03:46;100780.94;;;14.81;39.64
39954;BME280;25631;51.516;-0.470;2023-07-30T06:06:22;100781.27;;;14.70;39.46
39954;BME280;25631;51.516;-0.470;2023-07-30T06:08:58;100786.81;;;14.76;39.62
39954;BME280;25631;51.516;-0.470;2023-07-30T06:11:35;100786.75;;;15.26;39.56
39954;BME280;25631;51.516;-0.470;2023-07-30T06:14:11;100792.11;;;15.06;39.66
39954;BME280;25631;51.516;-0.470;2023-07-30T06:16:48;100797.92;;;14.79;39.60
39954;BME280;25631;51.516;-0.470;2023-07-30T06:19:24;100796.25;;;14.46;39.63
39954;BME280;25631;51.516;-0.470;2023-07-30T06:22:01;100798.30;;;15.01;39.47
39954;BME280;25631;51.516;-0.470;2023-07-30T06:24:37;100802.58;;;14.80;39.64
39954;BME280;25631;51.516;-0.470;2023-07-30T06:27:14;100801.98;;;15.08;39.41
39954;BME280;25631;51.516;-0.470;2023-07-30T06:29:50;100803.67;;;15.14;39.30
39954;BME280;25631;51.516;-0.470;2023-07-30T06:32:27;100803.90;;;15.64;39.11
39954;BME280;25631;51.516;-0.470;2023-07-30T06:35:04;100805.94;;;15.39;38.93
39954;BME280;25631;51.516;-0.470;2023-07-30T06:37:41;100810.67;;;15.55;38.88
39954;BME280;25631;51.516;-0.470;2023-07-30T06:40:17;100813.89;;;15.63;38.66
39954;BME280;25631;51.516;-0.470;2023-07-30T06:42:53;100825.07;;;15.53;38.73
39954;BME280;25631;51.516;-0.470;2023-07-30T06:45:30;100822.16;;;15.69;38.62
39954;BME280;25631;51.516;-0.470;2023-07-30T06:48:06;100821.70;;;15.64;38.41
39954;BME280;25631;51.516;-0.470;2023-07-30T06:50:43;100822.11;;;15.50;38.63
39954;BME280;25631;51.516;-0.470;2023-07-30T06:53:19;100815.92;;;15.58;38.61
39954;BME280;25631;51.516;-0.470;2023-07-30T06:55:56;100823.40;;;15.80;38.51
39954;BME280;25631;51.516;-0.470;2023-07-30T06:58:32;100816.72;;;15.57;38.44
39954;BME280;25631;51.516;-0.470;2023-07-30T07:01:09;100816.58;;;15.62;38.71
39954;BME280;25631;51.516;-0.470;2023-07-30T07:03:45;100813.83;;;15.33;38.84
39954;BME280;25631;51.516;-0.470;2023-07-30T07:06:22;100817.49;;;15.58;38.76
39954;BME280;25631;51.516;-0.470;2023-07-30T07:08:58;100815.85;;;15.50;38.85
39954;BME280;25631;51.516;-0.470;2023-07-30T07:11:34;100817.97;;;15.50;39.08
39954;BME280;25631;51.516;-0.470;2023-07-30T07:14:11;100815.45;;;15.60;38.96
39954;BME280;25631;51.516;-0.470;2023-07-30T07:16:47;100821.27;;;15.52;38.76
39954;BME280;25631;51.516;-0.470;2023-07-30T07:19:24;100818.04;;;15.47;38.68
39954;BME280;25631;51.516;-0.470;2023-07-30T07:22:00;100820.97;;;15.60;38.59
39954;BME280;25631;51.516;-0.470;2023-07-30T07:24:37;100822.11;;;15.73;38.85
39954;BME280;25631;51.516;-0.470;2023-07-30T07:27:13;100818.00;;;15.94;38.18
39954;BME280;25631;51.516;-0.470;2023-07-30T07:29:50;100821.26;;;15.98;37.94
39954;BME280;25631;51.516;-0.470;2023-07-30T07:32:27;100821.98;;;16.08;37.79
39954;BME280;25631;51.516;-0.470;2023-07-30T07:35:04;100834.68;;;15.98;37.60
39954;BME280;25631;51.516;-0.470;2023-07-30T07:37:40;100828.93;;;16.37;37.47
39954;BME280;25631;51.516;-0.470;2023-07-30T07:40:17;100820.11;;;16.08;37.19
39954;BME280;25631;51.516;-0.470;2023-07-30T07:42:54;100819.72;;;16.37;37.24
39954;BME280;25631;51.516;-0.470;2023-07-30T07:45:31;100823.88;;;16.42;36.87
39954;BME280;25631;51.516;-0.470;2023-07-30T07:48:07;100836.57;;;16.39;36.90
39954;BME280;25631;51.516;-0.470;2023-07-30T07:50:44;100847.12;;;16.41;36.96
39954;BME280;25631;51.516;-0.470;2023-07-30T07:53:21;100847.48;;;16.98;36.57
39954;BME280;25631;51.516;-0.470;2023-07-30T07:55:58;100846.95;;;16.97;36.36
39954;BME280;25631;51.516;-0.470;2023-07-30T07:58:34;100849.44;;;17.00;35.92
39954;BME280;25631;51.516;-0.470;2023-07-30T08:01:11;100847.44;;;16.84;35.65
39954;BME280;25631;51.516;-0.470;2023-07-30T08:03:47;100852.94;;;17.00;35.38
39954;BME280;25631;51.516;-0.470;2023-07-30T08:06:24;100858.51;;;16.73;35.02
39954;BME280;25631;51.516;-0.470;2023-07-30T08:09:00;100848.34;;;16.69;34.90
39954;BME280;25631;51.516;-0.470;2023-07-30T08:11:37;100851.45;;;17.01;34.87
39954;BME280;25631;51.516;-0.470;2023-07-30T08:14:13;100847.11;;;16.64;34.69
39954;BME280;25631;51.516;-0.470;2023-07-30T08:16:50;100846.96;;;16.90;34.80
39954;BME280;25631;51.516;-0.470;2023-07-30T08:19:26;100845.48;;;16.78;34.50
39954;BME280;25631;51.516;-0.470;2023-07-30T08:22:03;100852.50;;;17.01;34.44
39954;BME280;25631;51.516;-0.470;2023-07-30T08:24:40;100857.94;;;17.02;34.40
39954;BME280;25631;51.516;-0.470;2023-07-30T08:27:16;100849.04;;;17.04;34.43
39954;BME280;25631;51.516;-0.470;2023-07-30T08:29:53;100846.76;;;17.14;34.03
39954;BME280;25631;51.516;-0.470;2023-07-30T08:32:29;100848.41;;;16.97;33.83
39954;BME280;25631;51.516;-0.470;2023-07-30T08:35:07;100856.00;;;17.17;34.01
39954;BME280;25631;51.516;-0.470;2023-07-30T08:37:43;100858.01;;;17.46;33.83
39954;BME280;25631;51.516;-0.470;2023-07-30T08:40:39;100854.76;;;17.31;34.00
39954;BME280;25631;51.516;-0.470;2023-07-30T08:43:15;100854.95;;;16.63;33.97
39954;BME280;25631;51.516;-0.470;2023-07-30T08:45:52;100861.42;;;17.09;33.80
39954;BME280;25631;51.516;-0.470;2023-07-30T08:48:28;100855.04;;;17.47;33.65
39954;BME280;25631;51.516;-0.470;2023-07-30T08:51:05;100853.34;;;16.97;33.39
39954;BME280;25631;51.516;-0.470;2023-07-30T08:53:42;100860.22;;;17.35;33.45
39954;BME280;25631;51.516;-0.470;2023-07-30T08:56:18;100866.34;;;17.16;33.24
39954;BME280;25631;51.516;-0.470;2023-07-30T08:58:56;100857.62;;;17.24;32.57
39954;BME280;25631;51.516;-0.470;2023-07-30T09:01:38;100852.89;;;17.17;32.77
39954;BME280;25631;51.516;-0.470;2023-07-30T09:04:17;100853.79;;;16.76;32.91
39954;BME280;25631;51.516;-0.470;2023-07-30T09:06:54;100856.14;;;16.97;32.80
39954;BME280;25631;51.516;-0.470;2023-07-30T09:09:30;100850.00;;;17.39;32.54
39954;BME280;25631;51.516;-0.470;2023-07-30T09:12:13;100844.65;;;17.04;32.98
39954;BME280;25631;51.516;-0.470;2023-07-30T09:14:51;100844.91;;;17.84;33.26
39954;BME280;25631;51.516;-0.470;2023-07-30T09:17:27;100842.97;;;17.24;32.74
39954;BME280;25631;51.516;-0.470;2023-07-30T09:20:05;100849.81;;;17.35;31.90
39954;BME280;25631;51.516;-0.470;2023-07-30T09:22:42;100852.97;;;17.53;31.79
39954;BME280;25631;51.516;-0.470;2023-07-30T09:25:19;100846.95;;;18.09;31.80
39954;BME280;25631;51.516;-0.470;2023-07-30T09:27:55;100848.83;;;18.26;31.77
39954;BME280;25631;51.516;-0.470;2023-07-30T09:30:32;100857.19;;;17.94;31.52
39954;BME280;25631;51.516;-0.470;2023-07-30T09:33:08;100860.19;;;17.57;31.40
39954;BME280;25631;51.516;-0.470;2023-07-30T09:35:45;100860.01;;;18.05;31.38
39954;BME280;25631;51.516;-0.470;2023-07-30T09:38:21;100861.04;;;18.43;31.08
39954;BME280;25631;51.516;-0.470;2023-07-30T09:41:01;100854.77;;;18.70;31.11
39954;BME280;25631;51.516;-0.470;2023-07-30T09:43:37;100850.73;;;18.89;31.01
39954;BME280;25631;51.516;-0.470;2023-07-30T09:46:14;100854.46;;;19.01;30.51
39954;BME280;25631;51.516;-0.470;2023-07-30T09:48:50;100853.19;;;18.83;30.61
39954;BME280;25631;51.516;-0.470;2023-07-30T09:51:27;100857.21;;;19.07;30.62
39954;BME280;25631;51.516;-0.470;2023-07-30T09:54:04;100850.59;;;18.61;30.44
39954;BME280;25631;51.516;-0.470;2023-07-30T09:56:42;100848.31;;;18.59;30.53
39954;BME280;25631;51.516;-0.470;2023-07-30T09:59:19;100847.92;;;18.67;30.96
39954;BME280;25631;51.516;-0.470;2023-07-30T10:01:55;100852.64;;;18.62;30.74
39954;BME280;25631;51.516;-0.470;2023-07-30T10:04:34;100852.21;;;18.69;30.82
39954;BME280;25631;51.516;-0.470;2023-07-30T10:07:16;100859.84;;;18.86;30.67
39954;BME280;25631;51.516;-0.470;2023-07-30T10:09:58;100861.03;;;18.98;30.82
39954;BME280;25631;51.516;-0.470;2023-07-30T10:12:36;100863.52;;;19.03;31.18
39954;BME280;25631;51.516;-0.470;2023-07-30T10:15:18;100869.19;;;18.55;31.50
39954;BME280;25631;51.516;-0.470;2023-07-30T10:17:57;100869.97;;;18.15;31.97
39954;BME280;25631;51.516;-0.470;2023-07-30T10:20:34;100871.77;;;18.11;32.16
39954;BME280;25631;51.516;-0.470;2023-07-30T10:23:10;100877.41;;;17.71;32.61
39954;BME280;25631;51.516;-0.470;2023-07-30T10:25:48;100878.69;;;18.21;32.67
39954;BME280;25631;51.516;-0.470;2023-07-30T10:28:32;100880.35;;;18.43;32.69
39954;BME280;25631;51.516;-0.470;2023-07-30T10:31:09;100877.87;;;18.40;32.81
39954;BME280;25631;51.516;-0.470;2023-07-30T10:33:49;100872.11;;;18.62;32.84
39954;BME280;25631;51.516;-0.470;2023-07-30T10:36:31;100867.70;;;18.21;32.98
39954;BME280;25631;51.516;-0.470;2023-07-30T10:39:13;100874.60;;;18.24;33.53
39954;BME280;25631;51.516;-0.470;2023-07-30T10:41:51;100874.40;;;18.81;33.67
39954;BME280;25631;51.516;-0.470;2023-07-30T10:44:30;100880.46;;;18.70;33.43
39954;BME280;25631;51.516;-0.470;2023-07-30T10:47:07;100877.71;;;18.52;33.23
39954;BME280;25631;51.516;-0.470;2023-07-30T10:49:43;100870.34;;;18.74;33.04
39954;BME280;25631;51.516;-0.470;2023-07-30T10:52:24;100879.89;;;18.71;33.32
39954;BME280;25631;51.516;-0.470;2023-07-30T10:55:01;100877.16;;;18.81;33.35
39954;BME280;25631;51.516;-0.470;2023-07-30T10:57:38;100877.48;;;18.81;33.50
39954;BME280;25631;51.516;-0.470;2023-07-30T11:00:15;100873.47;;;18.51;33.52
39954;BME280;25631;51.516;-0.470;2023-07-30T11:02:53;100878.80;;;18.55;33.78
39954;BME280;25631;51.516;-0.470;2023-07-30T11:05:29;100879.80;;;18.45;33.62
39954;BME280;25631;51.516;-0.470;2023-07-30T11:08:06;100876.51;;;18.32;33.83
39954;BME280;25631;51.516;-0.470;2023-07-30T11:10:43;100882.74;;;18.44;34.05
39954;BME280;25631;51.516;-0.470;2023-07-30T11:13:20;100879.08;;;18.54;34.20
39954;BME280;25631;51.516;-0.470;2023-07-30T11:15:57;100879.08;;;18.24;34.55
39954;BME280;25631;51.516;-0.470;2023-07-30T11:18:34;100884.92;;;18.13;34.94
39954;BME280;25631;51.516;-0.470;2023-07-30T11:21:12;100880.40;;;17.69;35.24
39954;BME280;25631;51.516;-0.470;2023-07-30T11:23:50;100892.93;;;17.88;35.48
39954;BME280;25631;51.516;-0.470;2023-07-30T11:26:27;100885.73;;;17.82;35.67
39954;BME280;25631;51.516;-0.470;2023-07-30T11:29:14;100888.48;;;17.84;35.98
39954;BME280;25631;51.516;-0.470;2023-07-30T11:31:50;100882.89;;;18.33;36.00
39954;BME280;25631;51.516;-0.470;2023-07-30T11:34:27;100883.16;;;17.87;36.18
39954;BME280;25631;51.516;-0.470;2023-07-30T11:37:05;100885.19;;;17.76;36.57
39954;BME280;25631;51.516;-0.470;2023-07-30T11:39:43;100883.47;;;18.23;36.50
39954;BME280;25631;51.516;-0.470;2023-07-30T11:42:19;100881.12;;;18.07;36.75
39954;BME280;25631;51.516;-0.470;2023-07-30T11:44:56;100879.14;;;17.81;37.28
39954;BME280;25631;51.516;-0.470;2023-07-30T11:47:33;100877.38;;;17.94;38.09
39954;BME280;25631;51.516;-0.470;2023-07-30T11:50:09;100877.51;;;17.84;38.91
39954;BME280;25631;51.516;-0.470;2023-07-30T11:52:54;100877.98;;;17.93;39.21
39954;BME280;25631;51.516;-0.470;2023-07-30T11:55:38;100872.05;;;17.73;39.52
39954;BME280;25631;51.516;-0.470;2023-07-30T11:58:15;100877.05;;;17.97;39.60
39954;BME280;25631;51.516;-0.470;2023-07-30T12:00:51;100876.13;;;18.01;39.72
39954;BME280;25631;51.516;-0.470;2023-07-30T12:03:28;100870.13;;;17.89;39.23
39954;BME280;25631;51.516;-0.470;2023-07-30T12:06:05;100871.17;;;17.83;39.13
39954;BME280;25631;51.516;-0.470;2023-07-30T12:08:42;100869.76;;;17.90;39.07
39954;BME280;25631;51.516;-0.470;2023-07-30T12:11:19;100870.08;;;17.72;39.17
39954;BME280;25631;51.516;-0.470;2023-07-30T12:13:55;100867.22;;;17.76;39.10
39954;BME280;25631;51.516;-0.470;2023-07-30T12:16:31;100859.48;;;17.90;39.13
39954;BME280;25631;51.516;-0.470;2023-07-30T12:19:08;100868.34;;;18.05;39.05
39954;BME280;25631;51.516;-0.470;2023-07-30T12:21:44;100858.81;;;17.96;39.22
39954;BME280;25631;51.516;-0.470;2023-07-30T12:24:21;100859.43;;;17.81;39.68
39954;BME280;25631;51.516;-0.470;2023-07-30T12:26:57;100860.26;;;18.05;39.59
39954;BME280;25631;51.516;-0.470;2023-07-30T12:29:34;100861.06;;;18.12;39.61
39954;BME280;25631;51.516;-0.470;2023-07-30T12:32:10;100864.25;;;17.89;39.87
39954;BME280;25631;51.516;-0.470;2023-07-30T12:34:46;100863.32;;;17.87;40.00
39954;BME280;25631;51.516;-0.470;2023-07-30T12:37:23;100856.93;;;17.96;40.13
39954;BME280;25631;51.516;-0.470;2023-07-30T12:40:00;100863.85;;;18.04;40.05
39954;BME280;25631;51.516;-0.470;2023-07-30T12:42:37;100860.88;;;18.28;39.89
39954;BME280;25631;51.516;-0.470;2023-07-30T12:45:13;100861.98;;;18.40;39.89
39954;BME280;25631;51.516;-0.470;2023-07-30T12:47:49;100864.81;;;18.16;40.00
39954;BME280;25631;51.516;-0.470;2023-07-30T12:50:26;100858.11;;;17.91;40.21
39954;BME280;25631;51.516;-0.470;2023-07-30T12:53:02;100854.77;;;18.16;40.17
39954;BME280;25631;51.516;-0.470;2023-07-30T12:55:39;100859.01;;;18.04;40.25
39954;BME280;25631;51.516;-0.470;2023-07-30T12:58:16;100858.76;;;18.25;40.14
39954;BME280;25631;51.516;-0.470;2023-07-30T13:00:52;100863.15;;;18.67;40.08
39954;BME280;25631;51.516;-0.470;2023-07-30T13:03:28;100855.29;;;18.32;40.11
39954;BME280;25631;51.516;-0.470;2023-07-30T13:06:05;100855.63;;;18.50;40.37
39954;BME280;25631;51.516;-0.470;2023-07-30T13:08:41;100850.58;;;18.44;40.39
39954;BME280;25631;51.516;-0.470;2023-07-30T13:11:18;100845.18;;;18.55;40.36
39954;BME280;25631;51.516;-0.470;2023-07-30T13:13:54;100841.81;;;18.77;40.34
39954;BME280;25631;51.516;-0.470;2023-07-30T13:16:30;100839.60;;;18.83;40.24
39954;BME280;25631;51.516;-0.470;2023-07-30T13:19:07;100840.70;;;18.67;40.27
39954;BME280;25631;51.516;-0.470;2023-07-30T13:21:44;100838.63;;;18.83;40.44
39954;BME280;25631;51.516;-0.470;2023-07-30T13:24:20;100836.24;;;18.97;40.38
39954;BME280;25631;51.516;-0.470;2023-07-30T13:26:57;100832.32;;;19.11;40.28
39954;BME280;25631;51.516;-0.470;2023-07-30T13:29:33;100835.57;;;19.05;40.04